Date,TemperatureHighF,TemperatureAvgF,TemperatureLowF,DewpointHighF,DewpointAvgF,DewpointLowF,HumidityHigh,HumidityAvg,HumidityLow,PressureMaxIn,PressureMinIn,WindSpeedMaxMPH,WindSpeedAvgMPH,GustSpeedMaxMPH,PrecipitationSumIn
2012-1-1,50,41,35,0,0,0,69,65,57,30.24,30.05,2,0,2,0.00
2012-1-2,54,48,36,0,0,0,75,61,23,30.34,29.98,3,1,3,0.12
2012-1-3,55,48,43,0,0,0,77,62,42,30.40,30.25,1,0,1,0.00
2012-1-4,55,52,32,0,0,0,82,57,1,30.44,30.24,2,0,3,0.24
2012-1-5,51,46,36,0,0,0,80,79,77,30.55,30.38,1,0,1,0.09
2012-1-6,48,41,34,0,0,0,78,75,70,30.43,30.34,0,0,0,0.00
2012-1-7,51,41,34,0,0,0,75,68,54,30.52,30.39,1,0,1,0.00
2012-1-8,47,38,33,0,0,0,69,67,62,30.44,30.30,0,0,0,0.00
2012-1-9,50,43,35,0,0,0,71,64,54,30.38,30.28,0,0,0,0.03
2012-1-10,47,43,36,0,0,0,71,45,24,30.47,30.37,0,0,0,0.03
2012-1-11,48,38,30,0,0,0,57,44,22,30.38,30.20,0,0,0,0.00
2012-1-12,48,36,28,0,0,0,58,49,21,30.27,30.16,0,0,0,0.00
2012-1-13,47,36,30,0,0,0,58,53,38,30.29,30.19,1,0,1,0.00
2012-1-14,50,44,36,0,0,0,77,59,35,30.29,30.18,1,0,1,0.18
2012-1-15,43,38,34,0,0,0,78,73,50,30.26,30.16,3,0,3,0.15
2012-1-16,40,36,30,0,0,0,78,76,68,30.38,30.24,2,0,2,0.24
2012-1-17,45,43,38,0,0,0,80,79,78,30.27,30.06,3,2,3,0.63
2012-1-18,76,69,44,68,25,0,80,78,77,30.06,29.80,5,3,5,1.41
2012-1-19,82,39,-4,74,32,-81,82,75,1,29.87,29.60,5,1,5,0.75
2012-1-20,0,0,0,0,0,0,83,80,1,29.87,29.32,4,1,4,0.96
2012-1-21,0,0,0,0,0,0,84,83,82,30.07,29.42,2,0,2,0.18
2012-1-22,0,0,0,0,0,0,85,82,1,29.99,29.61,4,1,4,0.03
2012-1-23,0,0,0,0,0,0,85,82,1,30.16,29.85,1,0,1,0.00
2012-1-24,0,0,0,0,0,0,85,80,1,30.30,30.00,4,2,4,0.24
2012-1-25,0,0,0,0,0,0,85,83,81,30.49,30.26,2,0,2,0.18
2012-1-26,44,9,0,36,8,0,85,76,60,30.61,30.24,2,0,2,0.27
2012-1-27,50,40,34,42,33,29,86,78,45,30.59,30.49,1,0,1,0.00
2012-1-28,53,45,35,42,38,30,83,77,53,30.49,30.29,2,0,2,0.00
2012-1-29,53,48,42,46,42,27,84,78,55,30.30,30.12,10,1,10,0.72
2012-1-30,53,50,48,48,45,43,85,83,80,30.23,30.15,0,0,0,0.03
2012-1-31,52,48,46,47,44,41,86,84,82,30.19,29.94,1,0,1,0.78
2012-2-1,51,48,42,47,44,38,86,84,80,30.48,29.95,2,0,2,0.00
2012-2-2,59,44,39,47,38,35,86,81,49,30.45,30.03,2,0,2,0.00
2012-2-3,58,47,38,37,34,22,70,60,24,30.15,29.99,2,0,2,0.03
2012-2-4,58,47,41,37,30,10,69,55,16,30.16,30.06,1,0,1,0.00
2012-2-5,56,46,40,32,28,15,63,51,20,30.22,30.00,1,0,1,0.00
2012-2-6,66,47,41,32,28,-10,64,50,5,30.00,29.70,2,0,2,0.00
2012-2-7,56,49,42,45,37,28,79,62,42,30.04,29.69,1,0,1,0.03
2012-2-8,54,51,48,48,46,42,83,82,79,30.29,30.04,1,0,2,0.30
2012-2-9,56,53,51,50,43,24,84,69,30,30.28,30.02,2,0,2,0.03
2012-2-10,54,51,48,49,44,32,84,78,44,30.19,30.01,2,0,2,0.93
2012-2-11,52,47,42,44,40,33,85,77,50,30.31,30.19,2,0,2,0.00
2012-2-12,50,46,43,39,37,33,82,70,54,30.08,29.92,0,0,0,0.45
2012-2-13,50,47,44,44,40,35,84,77,59,30.20,29.94,2,0,2,0.18
2012-2-14,49,44,40,41,36,30,81,73,59,30.30,30.13,1,0,1,0.18
2012-2-15,53,41,32,32,24,-58,82,56,1,30.46,30.30,5,0,5,0.03
2012-2-16,50,46,40,41,35,27,73,64,58,30.38,30.30,1,0,1,0.00
2012-2-17,53,49,45,47,43,40,83,80,73,30.32,30.19,2,0,2,0.00
2012-2-18,50,45,40,41,32,10,84,66,21,30.37,30.29,2,0,2,0.00
2012-2-19,53,44,38,40,28,-11,78,58,7,30.30,29.94,2,0,2,0.00
2012-2-20,53,51,47,47,43,-46,83,79,1,30.31,29.94,3,1,3,0.00
2012-2-21,54,52,51,-45,-46,-46,1,1,1,30.49,30.30,1,0,1,0.00
2012-2-22,52,50,46,44,-20,-48,84,26,1,30.55,30.43,1,0,1,0.00
2012-2-23,46,42,40,41,38,35,85,84,82,30.53,30.51,0,0,1,0.00
2012-2-26,45,43,40,27,15,8,60,34,22,30.20,30.17,2,1,2,0.00
2012-2-27,51,42,35,31,20,9,71,45,21,30.18,30.03,2,0,2,0.00
2012-2-28,47,42,36,37,27,16,76,55,42,30.03,29.65,3,1,3,0.00
2012-2-29,46,43,38,38,33,27,76,69,51,30.04,29.79,3,1,3,0.00
2012-3-1,51,43,32,44,35,-58,79,74,1,30.50,29.97,2,0,2,0.00
2012-3-2,54,45,37,44,37,31,79,74,64,30.57,30.50,1,0,1,0.00
2012-3-3,62,49,41,42,35,26,73,59,27,30.55,30.41,2,0,2,0.00
2012-3-4,57,48,40,36,28,23,59,46,30,30.42,30.23,3,0,3,0.00
2012-3-5,51,48,41,42,34,25,79,61,36,30.23,30.01,3,1,3,0.45
2012-3-6,46,42,36,39,34,29,80,76,69,30.41,30.16,2,0,2,0.21
2012-3-7,58,42,33,34,21,-16,76,51,5,30.46,30.21,2,0,2,0.21
2012-3-8,66,48,37,33,22,-8,55,39,5,30.38,30.19,2,0,2,0.00
2012-3-9,69,52,48,28,20,-13,44,32,5,30.38,30.13,2,0,2,0.00
2012-3-10,50,48,46,37,25,21,62,40,32,30.13,30.01,1,0,1,0.03
2012-3-13,44,43,43,38,37,37,78,78,78,32.49,32.49,0,0,0,0.00
2012-3-14,52,47,32,46,40,-58,82,78,1,32.49,29.86,2,1,3,0.00
2012-3-15,53,52,50,48,46,45,82,81,80,29.91,29.77,3,2,3,0.00
2012-3-16,54,48,43,47,43,-58,81,80,77,29.85,29.39,15,0,15,0.00
2012-3-17,54,44,41,42,38,36,82,79,64,29.76,29.54,2,0,3,0.00
2012-3-18,59,48,40,38,32,9,78,58,21,29.97,29.72,2,0,3,0.00
2012-3-19,58,43,36,39,33,18,77,69,43,29.98,29.85,3,0,3,0.00
2012-3-20,50,48,43,44,42,38,86,80,77,30.13,29.85,3,1,3,0.00
2012-3-21,65,42,39,60,39,36,88,86,82,30.11,29.92,1,0,1,0.00
2012-3-26,51,48,39,32,29,24,58,48,36,30.51,30.32,2,1,2,0.00
2012-3-27,51,47,45,43,38,32,80,70,57,30.33,30.19,2,1,2,0.00
2012-3-28,49,45,39,41,39,33,81,79,71,30.54,30.31,3,1,3,0.00
2012-3-29,58,50,49,51,44,43,81,81,78,30.41,30.38,3,2,3,0.00
2012-9-30,72,54,49,35,26,-9,56,36,5,30.99,30.87,2,1,2,0.00
2012-10-1,49,48,45,32,30,28,53,50,48,30.87,30.81,0,0,0,0.00
2012-10-30,59,58,57,51,50,49,76,76,76,29.88,29.83,2,1,2,0.15
2012-10-31,57,55,32,50,42,-58,76,70,1,29.84,29.71,2,0,2,0.66
2012-11-1,56,46,32,45,1,-58,69,39,1,30.11,29.84,3,1,3,0.33
2012-11-2,60,45,32,46,0,-58,60,36,1,30.10,30.02,1,0,1,0.12
2012-11-3,57,57,57,42,42,42,58,58,58,30.20,30.19,1,1,1,0.03
2012-11-19,67,44,32,0,0,0,80,38,1,29.84,29.66,4,1,11,0.87
2012-11-20,56,50,32,0,0,0,84,67,1,29.85,29.70,1,0,1,0.87
2012-11-21,58,45,32,0,0,0,84,48,1,30.37,29.79,1,0,2,0.18
2012-11-22,56,49,43,0,0,0,85,84,84,30.41,30.32,0,0,0,0.00
2012-11-23,58,35,32,0,0,0,85,14,1,30.34,30.24,2,0,2,0.30
2012-11-24,58,39,32,0,0,0,66,21,1,30.35,30.28,1,0,2,0.99
2012-11-25,53,41,32,0,0,0,60,31,1,30.29,30.06,1,0,2,0.03
2012-11-26,48,36,32,0,0,0,58,18,1,30.13,30.02,0,0,1,0.00
2012-11-27,32,32,32,0,0,0,1,1,1,30.12,29.89,0,0,1,0.00
2012-11-28,63,49,32,0,0,0,62,33,1,29.86,29.61,2,0,2,0.06
2012-11-29,64,61,59,0,0,0,58,55,52,29.70,29.53,2,1,2,1.38
2012-11-30,62,61,59,0,0,0,61,59,58,29.63,29.49,3,2,3,0.27
2012-12-1,62,60,59,0,0,0,61,59,57,29.85,29.56,2,1,3,0.39
2012-12-2,64,62,59,0,0,0,57,54,52,30.08,29.65,1,0,2,0.18
2012-12-3,62,60,59,0,0,0,58,57,55,30.17,29.86,0,0,0,0.06
2012-12-4,67,62,59,0,0,0,66,62,55,30.13,29.81,3,2,3,0.36
2012-12-5,66,59,43,0,0,0,75,57,50,30.35,30.15,1,0,1,0.03
2012-12-6,50,46,41,0,0,0,95,89,75,30.39,30.32,0,0,0,0.06
2012-12-7,51,48,45,0,0,0,97,96,93,30.36,30.31,0,0,0,0.27
2012-12-8,49,45,42,0,0,0,97,96,95,30.46,30.32,0,0,0,0.00
2012-12-9,53,48,43,0,0,0,96,95,94,30.50,30.44,0,0,0,0.00
2012-12-10,53,50,48,0,0,0,94,89,81,30.54,30.24,0,0,0,0.00
2012-12-11,50,48,44,0,0,0,97,88,73,30.22,29.79,1,0,1,0.51
2012-12-12,49,44,41,0,0,0,98,97,96,30.01,29.86,0,0,0,0.18
2012-12-14,38,38,38,0,0,0,97,97,97,30.05,30.03,0,0,0,0.00
2012-12-15,48,44,32,0,0,0,98,97,1,30.03,29.78,3,0,3,0.27
2012-12-16,54,49,32,0,0,0,98,96,1,29.99,29.47,3,1,3,0.69
2012-12-17,50,46,40,0,0,0,97,91,72,30.16,29.62,3,1,3,0.15
2012-12-18,44,40,32,0,0,0,97,96,82,30.23,30.15,3,0,3,0.27
2012-12-19,50,45,40,0,0,0,97,97,96,30.16,29.68,3,1,3,0.27
2012-12-20,50,44,32,0,0,0,98,97,1,29.89,29.62,3,1,3,2.19
2012-12-21,46,44,41,43,5,0,98,97,97,29.82,29.55,1,0,2,0.36
2012-12-22,47,42,40,44,42,39,99,97,88,29.81,29.52,1,0,4,1.53
2012-12-23,46,42,39,44,28,0,100,99,97,30.02,29.62,1,0,2,1.21
2012-12-24,47,42,39,46,42,-100,100,99,99,30.24,29.96,1,-5,1,0.04
2012-12-25,50,46,41,49,45,41,100,99,95,29.96,29.65,2,0,14,0.47
2012-12-26,47,44,43,47,44,43,100,100,97,30.13,29.73,1,0,7,0.42
2012-12-27,48,44,40,47,44,40,100,99,96,30.22,30.12,0,0,2,0.02
2012-12-28,46,43,41,46,43,41,100,100,97,30.16,30.08,0,0,3,0.07
2012-12-29,43,37,33,42,37,33,100,100,97,30.22,30.14,0,0,2,0.00
2012-12-30,45,36,32,42,35,32,100,98,85,30.26,30.17,1,0,5,0.01
2012-12-31,47,40,33,45,40,33,100,99,89,30.35,30.21,1,0,4,0.09
2013-1-1,44,37,32,44,37,32,100,100,100,30.36,30.22,0,0,2,0.01